Time;durP1;ratioP1;P1;durP2;ratioP2;P2;SDS_P1;SDS_P2;PMS_P1;PMS_P2;Temp;Humidity;BMP_temperature;BMP_pressure;BME280_temperature;BME280_humidity;BME280_pressure;Samples;Min_cycle;Max_cycle;Signal;HPM_P1;HPM_P2
2022/05/31 00:01:32;;;;;;;4.30;3.90;;;8.00;84.80;;;6.90;81.45;97671.41;5030223;28;20454;-79
2022/05/31 00:03:59;;;;;;;3.83;3.53;;;8.00;85.50;;;6.88;80.67;97668.09;5031487;28;20466;-79
2022/05/31 00:06:27;;;;;;;3.73;3.40;;;8.10;84.90;;;6.92;81.12;97664.81;5028494;28;20461;-84
2022/05/31 00:08:54;;;;;;;3.60;3.20;;;8.10;85.30;;;6.66;80.44;97601.09;4994573;28;20734;-84
2022/05/31 00:11:22;;;;;;;4.27;3.40;;;8.10;84.80;;;6.98;80.12;97655.13;5008418;28;20443;-83
2022/05/31 00:13:49;;;;;;;4.07;3.20;;;8.20;84.50;;;7.00;80.32;97658.44;5016907;28;20673;-79
2022/05/31 00:16:18;;;;;;;3.40;3.00;;;8.20;84.50;;;6.79;81.19;97662.06;4988834;28;20470;-83
2022/05/31 00:18:45;;;;;;;3.73;3.43;;;8.00;84.70;;;6.73;81.96;97655.63;4993260;28;20484;-80
2022/05/31 00:21:13;;;;;;;4.00;3.70;;;8.00;85.80;;;6.72;82.03;97670.09;5018257;28;20459;-85
2022/05/31 00:23:42;;;;;;;4.00;3.20;;;7.90;86.70;;;6.63;81.98;97656.00;4998648;28;20487;-88
2022/05/31 00:26:09;;;;;;;4.57;3.83;;;7.90;86.90;;;6.89;81.48;97667.06;4994822;28;20462;-87
2022/05/31 00:28:37;;;;;;;3.20;3.00;;;7.90;86.90;;;7.09;80.54;97667.13;4998239;28;20517;-87
2022/05/31 00:31:07;;;;;;;3.80;3.43;;;8.20;85.60;;;7.08;80.18;97660.09;5011914;28;20456;-88
2022/05/31 00:33:36;;;;;;;5.70;3.50;;;8.30;84.80;;;6.80;79.46;97610.84;5015878;28;20484;-87
2022/05/31 00:36:05;;;;;;;3.63;3.33;;;8.40;84.10;;;7.07;79.80;97664.66;5016394;28;20458;-87
2022/05/31 00:38:32;;;;;;;12.43;3.40;;;8.30;83.80;;;6.66;81.08;97603.78;5016229;28;20460;-89
2022/05/31 00:41:23;;;;;;;3.77;3.17;;;8.20;84.80;;;7.01;80.99;97660.09;4991971;28;20511;-81
2022/05/31 00:43:51;;;;;;;4.80;4.30;;;8.30;85.00;;;6.97;81.15;97656.16;5009421;28;20455;-85
2022/05/31 00:46:22;;;;;;;3.90;3.60;;;8.20;85.10;;;6.97;81.54;97668.75;4990769;28;20464;-86
2022/05/31 00:48:56;;;;;;;3.63;3.33;;;8.20;85.40;;;6.85;82.08;97663.13;5011122;28;20523;-86
2022/05/31 00:51:41;;;;;;;4.10;3.70;;;8.20;85.90;;;6.51;82.30;97625.38;4993594;28;20538;-86
2022/05/31 00:54:17;;;;;;;4.63;4.00;;;8.10;86.90;;;6.80;83.07;97672.59;4988455;28;20465;-87
2022/05/31 00:56:46;;;;;;;4.90;4.40;;;8.10;87.40;;;6.45;82.89;97610.91;4996465;28;20543;-80
2022/05/31 00:59:19;;;;;;;4.30;3.90;;;8.00;87.60;;;6.69;83.96;97662.44;5016823;28;20487;-81
2022/05/31 01:01:52;;;;;;;4.63;4.23;;;8.00;88.50;;;6.55;83.88;97661.53;5032621;28;20466;-78
2022/05/31 01:04:28;;;;;;;4.50;4.10;;;7.90;89.30;;;6.37;84.04;97643.28;5037608;28;20606;-78
2022/05/31 01:06:58;;;;;;;4.10;3.80;;;7.80;89.10;;;6.27;84.89;97664.25;5037382;28;20473;-82
2022/05/31 01:09:25;;;;;;;4.30;3.93;;;7.60;89.80;;;5.82;85.81;97611.72;5018503;28;20516;-87
2022/05/31 01:11:53;;;;;;;4.03;3.67;;;7.50;90.90;;;5.91;85.46;97629.31;5026352;28;20478;-85
2022/05/31 01:14:20;;;;;;;4.67;4.03;;;7.40;90.90;;;6.15;85.97;97678.22;4999119;28;20458;-85
2022/05/31 01:16:57;;;;;;;4.20;3.90;;;7.40;91.30;;;6.32;85.50;97672.56;5013123;28;20454;-87
2022/05/31 01:22:16;;;;;;;4.60;4.20;;;7.40;91.10;;;6.06;86.26;97684.75;5005280;28;20477;-90
2022/05/31 01:24:54;;;;;;;4.23;3.93;;;7.40;91.50;;;6.05;87.13;97699.19;5015392;28;20461;-93
2022/05/31 01:27:35;;;;;;;5.13;4.27;;;7.30;92.20;;;6.08;86.93;97688.91;5030799;28;20466;-85
2022/05/31 01:30:09;;;;;;;4.30;3.90;;;7.30;92.50;;;6.36;85.60;97696.09;5018655;28;20443;-81
2022/05/31 01:32:42;;;;;;;4.57;4.17;;;7.50;92.10;;;5.88;85.77;97629.72;5030478;28;20506;-88
2022/05/31 01:35:20;;;;;;;12.73;4.43;;;7.50;91.60;;;6.33;85.63;97687.63;5014775;28;20558;-86
2022/05/31 01:37:55;;;;;;;4.30;3.90;;;7.50;91.40;;;6.24;86.05;97687.78;5020771;28;21158;-90
2022/05/31 01:40:34;;;;;;;3.90;3.60;;;7.50;91.30;;;6.28;85.71;97682.00;5023136;28;20469;-82
2022/05/31 01:43:01;;;;;;;5.13;3.83;;;7.50;91.50;;;6.23;85.35;97685.28;5016787;28;20471;-85
2022/05/31 01:45:35;;;;;;;4.70;4.30;;;7.50;91.10;;;6.32;85.78;97675.25;5032941;28;20454;-91
2022/05/31 01:48:10;;;;;;;4.60;3.50;;;7.50;91.70;;;6.36;85.71;97687.22;4994824;28;20468;-90
2022/05/31 01:50:38;;;;;;;5.57;4.60;;;7.60;91.10;;;6.25;85.67;97656.41;4995654;28;20648;-91
2022/05/31 01:53:09;;;;;;;4.87;4.30;;;7.60;91.20;;;5.95;85.65;97625.22;5014083;28;20509;-87
2022/05/31 01:55:41;;;;;;;4.60;3.90;;;7.60;91.20;;;5.99;85.41;97614.09;5009448;28;20545;-87
2022/05/31 01:58:15;;;;;;;4.73;4.33;;;7.60;90.80;;;6.34;85.12;97675.88;4999689;28;20518;-94
2022/05/31 02:00:42;;;;;;;4.70;4.30;;;7.60;90.90;;;6.38;84.82;97667.25;5009818;28;20460;-88
2022/05/31 02:03:15;;;;;;;4.50;4.10;;;7.60;90.80;;;6.40;85.44;97683.13;5028457;28;20513;-84
2022/05/31 02:05:48;;;;;;;4.23;3.73;;;7.70;90.70;;;6.21;85.78;97671.22;5024644;28;20448;-83
2022/05/31 02:08:19;;;;;;;4.30;4.00;;;7.60;90.80;;;6.21;85.74;97690.84;5034254;28;20467;-84
2022/05/31 02:10:47;;;;;;;4.43;4.03;;;7.50;91.30;;;6.26;86.00;97674.16;5007311;28;20559;-88
2022/05/31 02:13:19;;;;;;;4.83;4.43;;;7.50;91.50;;;6.33;85.34;97671.53;4980891;28;20483;-86
2022/05/31 02:15:49;;;;;;;4.80;4.40;;;7.60;91.30;;;6.29;85.24;97672.94;5034003;28;20478;-87
2022/05/31 02:18:20;;;;;;;5.53;4.00;;;7.60;91.20;;;6.26;85.62;97673.31;5019059;28;20487;-86
2022/05/31 02:20:48;;;;;;;5.60;4.10;;;7.50;91.10;;;6.21;86.07;97665.84;5033171;28;20465;-86
2022/05/31 02:23:17;;;;;;;4.87;4.47;;;7.50;91.40;;;6.21;85.24;97664.03;5008528;28;20475;-82
2022/05/31 02:25:44;;;;;;;4.43;4.07;;;7.60;91.10;;;5.98;86.03;97612.44;5011101;28;20441;-85
2022/05/31 02:28:11;;;;;;;4.43;4.10;;;7.60;91.20;;;5.94;85.47;97628.94;5016075;28;20871;-86
2022/05/31 02:30:39;;;;;;;4.57;4.17;;;7.60;91.10;;;6.25;85.35;97667.16;5015491;28;20526;-80
2022/05/31 02:33:07;;;;;;;4.23;3.93;;;7.50;91.20;;;6.13;86.08;97648.06;4986141;28;20538;-87
2022/05/31 02:35:34;;;;;;;4.70;4.30;;;7.60;91.20;;;6.20;86.13;97667.72;4993245;28;20494;-84
2022/05/31 02:38:02;;;;;;;4.93;4.50;;;7.50;91.30;;;5.75;86.11;97590.22;4998049;28;20455;-88
2022/05/31 02:40:31;;;;;;;4.53;4.23;;;7.50;91.20;;;6.15;86.05;97664.81;4984113;28;20464;-86
2022/05/31 02:42:59;;;;;;;5.37;4.87;;;7.50;91.20;;;6.08;86.46;97653.19;4976612;28;21377;-84
2022/05/31 02:45:27;;;;;;;4.33;3.93;;;7.50;91.50;;;6.10;87.04;97661.88;4992124;28;20491;-88
2022/05/31 02:47:55;;;;;;;5.53;4.90;;;7.50;91.40;;;6.06;86.64;97647.19;4993107;28;20516;-83
2022/05/31 02:50:23;;;;;;;4.87;4.00;;;7.40;92.00;;;5.69;87.02;97609.75;5005698;28;21403;-83
2022/05/31 02:52:50;;;;;;;5.40;4.87;;;7.30;92.30;;;5.90;88.26;97665.22;4985889;28;20590;-84
2022/05/31 02:55:18;;;;;;;5.43;4.67;;;7.20;92.50;;;5.76;88.10;97674.16;4981038;28;20455;-83
2022/05/31 02:57:47;;;;;;;4.93;4.53;;;7.10;92.60;;;5.66;88.68;97653.03;5003213;28;20462;-89
2022/05/31 03:00:16;;;;;;;4.47;4.07;;;7.00;94.10;;;5.62;89.79;97663.31;5014445;28;20446;-88
2022/05/31 03:02:43;;;;;;;4.97;4.57;;;6.90;94.40;;;5.59;90.02;97660.19;5001256;28;20458;-88
2022/05/31 03:05:11;;;;;;;5.97;4.30;;;6.90;94.60;;;5.71;88.77;97665.88;5035080;28;20522;-85
2022/05/31 03:07:38;;;;;;;4.53;4.00;;;6.90;94.50;;;5.71;89.61;97666.69;5002013;28;20546;-86
2022/05/31 03:10:07;;;;;;;4.80;4.40;;;6.90;94.90;;;5.77;89.15;97670.44;5025630;28;20445;-83
2022/05/31 03:12:35;;;;;;;4.23;3.93;;;7.00;94.10;;;5.89;88.42;97668.06;5012412;28;20476;-89
2022/05/31 03:15:07;;;;;;;5.60;4.77;;;7.10;94.10;;;5.89;88.00;97663.56;5003652;28;20536;-85
2022/05/31 03:17:39;;;;;;;4.77;4.30;;;7.20;93.50;;;5.87;87.80;97665.59;4994376;28;20473;-84
2022/05/31 03:20:12;;;;;;;4.57;4.17;;;7.20;93.00;;;5.85;88.61;97664.97;5014307;28;20477;-86
2022/05/31 03:22:51;;;;;;;5.57;3.83;;;7.10;93.60;;;5.75;89.45;97672.50;5009833;28;20958;-89
2022/05/31 03:25:22;;;;;;;4.07;3.77;;;7.00;94.20;;;5.93;88.52;97669.38;4994826;28;20911;-84
2022/05/31 03:27:52;;;;;;;5.10;4.60;;;7.10;94.10;;;5.60;88.03;97617.13;4999559;28;20453;-83
2022/05/31 03:30:22;;;;;;;4.93;4.53;;;7.20;93.40;;;5.96;87.62;97675.16;5014823;28;20473;-86
2022/05/31 03:32:49;;;;;;;5.23;4.80;;;7.30;93.10;;;5.46;87.59;97592.06;4999271;28;20522;-82
2022/05/31 03:35:17;;;;;;;4.60;4.20;;;7.30;93.10;;;6.08;87.50;97671.97;5018247;28;20466;-82
2022/05/31 03:37:44;;;;;;;4.77;4.37;;;7.30;92.70;;;6.00;86.93;97669.41;5027548;28;20539;-87
2022/05/31 03:40:56;;;;;;;4.90;4.40;;;7.40;92.30;;;6.09;87.04;97673.63;5014475;28;20461;-86
2022/05/31 03:43:01;;;;;;;4.60;4.20;;;7.40;92.20;;;6.08;86.56;97672.81;4990012;28;20470;-86
2022/05/31 03:45:34;;;;;;;4.40;4.00;;;7.40;91.90;;;5.98;87.00;97677.66;4985013;28;20454;-87
2022/05/31 03:48:02;;;;;;;4.47;4.10;;;7.40;91.90;;;5.84;87.91;97682.09;5008616;28;20552;-84
2022/05/31 03:50:29;;;;;;;4.43;4.03;;;7.20;92.70;;;5.76;87.43;97648.19;4995496;28;20456;-85
2022/05/31 03:52:56;;;;;;;6.60;5.43;;;7.30;93.20;;;6.08;87.72;97688.06;4991606;28;21078;-84
2022/05/31 03:55:24;;;;;;;4.90;4.47;;;7.30;92.80;;;6.15;86.91;97674.69;4990994;28;20464;-82
2022/05/31 03:57:53;;;;;;;5.60;5.20;;;7.40;92.30;;;6.16;85.90;97679.88;5011255;28;20468;-86
2022/05/31 04:00:22;;;;;;;4.67;3.80;;;7.50;91.40;;;6.22;86.13;97683.63;4979216;28;20489;-85
2022/05/31 04:02:51;;;;;;;5.13;4.47;;;7.50;91.30;;;6.32;85.87;97683.28;5015229;28;20460;-85
2022/05/31 04:05:19;;;;;;;4.87;4.40;;;7.60;91.10;;;6.51;85.47;97687.94;5015470;28;20462;-85
2022/05/31 04:07:46;;;;;;;5.17;4.60;;;7.80;90.90;;;6.95;83.50;97693.94;4992328;28;20486;-85
2022/05/31 04:10:13;;;;;;;5.00;4.07;;;8.20;89.20;;;7.63;80.17;97688.78;4987719;28;20462;-84
2022/05/31 04:12:40;;;;;;;4.37;3.97;;;8.90;84.30;;;8.32;76.07;97658.97;5008917;28;20983;-84
2022/05/31 04:15:08;;;;;;;4.40;4.00;;;9.80;80.10;;;9.11;72.44;97674.31;5005638;28;20494;-85
2022/05/31 04:17:36;;;;;;;4.20;3.87;;;10.60;76.00;;;9.73;69.37;97655.69;4991579;28;20541;-85
2022/05/31 04:20:06;;;;;;;4.63;4.20;;;11.30;73.80;;;10.73;66.11;97666.63;4994214;28;20970;-85
2022/05/31 04:22:34;;;;;;;6.10;4.10;;;12.10;71.20;;;10.38;65.46;97621.25;5010141;28;20582;-85
2022/05/31 04:25:01;;;;;;;6.40;3.70;;;12.60;69.30;;;10.78;64.75;97679.47;4992888;28;21026;-82
2022/05/31 04:27:29;;;;;;;4.77;3.30;;;12.90;67.40;;;10.91;64.75;97683.91;5015886;28;20538;-86
2022/05/31 04:29:56;;;;;;;3.57;3.27;;;13.00;66.90;;;11.38;63.77;97693.31;4994583;28;20462;-85
2022/05/31 04:32:23;;;;;;;3.97;3.63;;;13.10;66.50;;;11.53;62.94;97672.06;4993898;28;20521;-84
2022/05/31 04:34:52;;;;;;;3.87;3.57;;;13.20;66.10;;;11.63;61.62;97660.69;5008040;28;20495;-84
2022/05/31 04:37:22;;;;;;;3.73;3.43;;;13.50;65.20;;;12.02;60.62;97695.53;4999922;28;20815;-84
2022/05/31 04:39:49;;;;;;;4.97;3.47;;;13.80;63.70;;;12.01;59.66;97631.56;4999766;28;20447;-77
2022/05/31 04:42:16;;;;;;;3.90;3.60;;;13.90;63.80;;;12.41;59.08;97690.50;5017255;28;20454;-80
2022/05/31 04:44:44;;;;;;;4.80;3.70;;;14.10;62.70;;;11.15;60.55;97613.75;5010352;28;20457;-82
2022/05/31 04:47:12;;;;;;;4.17;3.87;;;13.80;62.60;;;11.80;61.21;97692.50;5013735;28;20439;-83
2022/05/31 04:49:39;;;;;;;4.27;3.90;;;13.80;63.00;;;12.39;59.16;97683.66;5020134;28;20455;-81
2022/05/31 04:52:07;;;;;;;12.67;5.30;;;14.00;62.20;;;12.69;58.06;97686.25;5015681;28;20530;-83
2022/05/31 04:54:35;;;;;;;6.13;4.30;;;14.30;61.70;;;11.86;60.65;97692.41;5023577;28;20693;-83
2022/05/31 04:57:04;;;;;;;6.87;4.40;;;14.10;61.50;;;12.09;60.17;97690.00;5004077;28;20459;-82
2022/05/31 04:59:32;;;;;;;4.23;3.83;;;14.10;61.70;;;11.71;60.23;97610.81;5012434;28;20502;-77
2022/05/31 05:01:59;;;;;;;4.60;4.10;;;14.10;62.00;;;12.39;59.63;97665.53;4998875;28;20514;-79
2022/05/31 05:04:26;;;;;;;4.83;4.40;;;14.30;61.60;;;12.64;57.52;97618.38;5006714;28;20975;-78
2022/05/31 05:06:54;;;;;;;4.37;3.97;;;15.00;60.70;;;13.20;57.03;97661.28;5010834;28;20466;-79
2022/05/31 05:09:20;;;;;;;6.50;4.07;;;15.10;59.80;;;13.82;54.75;97659.72;4992778;28;20533;-76
2022/05/31 05:11:49;;;;;;;3.87;3.17;;;15.50;58.80;;;13.48;55.61;97665.09;5011762;28;20487;-77
2022/05/31 05:14:16;;;;;;;4.13;3.80;;;15.30;59.00;;;13.58;55.16;97643.56;5010766;28;20544;-77
2022/05/31 05:16:44;;;;;;;3.80;3.50;;;15.40;58.90;;;13.72;55.02;97649.50;5004106;28;20463;-77
2022/05/31 05:19:12;;;;;;;3.47;3.17;;;15.40;58.70;;;13.51;55.45;97648.31;5015273;28;20524;-78
2022/05/31 05:21:40;;;;;;;5.90;3.43;;;15.60;58.20;;;14.01;54.22;97654.03;5014835;28;20502;-74
2022/05/31 05:24:08;;;;;;;4.47;3.23;;;15.90;57.80;;;14.07;53.92;97661.22;5016043;28;20570;-78
2022/05/31 05:26:35;;;;;;;3.90;3.60;;;16.00;57.60;;;14.67;52.36;97658.00;5009271;28;20448;-75
2022/05/31 05:31:52;;;;;;;3.50;3.20;;;16.30;57.30;;;15.09;53.18;97653.94;5005164;28;20452;-80
2022/05/31 05:34:20;;;;;;;5.07;3.50;;;16.70;57.40;;;16.07;48.95;97659.56;5005055;28;20556;-81
2022/05/31 05:36:47;;;;;;;2.93;2.73;;;17.40;55.80;;;16.26;47.46;97605.47;5008754;28;20534;-80
2022/05/31 05:39:14;;;;;;;4.87;3.53;;;17.90;54.70;;;17.06;46.05;97648.22;4993229;28;20506;-84
2022/05/31 05:41:41;;;;;;;3.20;2.70;;;18.40;53.80;;;16.40;47.00;97654.94;5010680;28;20493;-80
2022/05/31 05:44:10;;;;;;;3.13;2.90;;;18.40;52.70;;;16.33;48.21;97649.69;5009401;28;20452;-79
2022/05/31 05:46:38;;;;;;;2.83;2.60;;;18.30;53.10;;;16.49;47.19;97644.34;5006251;28;20464;-77
2022/05/31 05:49:05;;;;;;;3.63;3.33;;;18.30;52.80;;;16.25;48.48;97648.28;5004908;28;20460;-75
2022/05/31 05:51:35;;;;;;;3.20;2.90;;;18.30;53.10;;;15.76;49.15;97630.16;5006404;28;21111;-82
2022/05/31 05:54:02;;;;;;;4.00;3.53;;;18.00;53.00;;;15.49;50.15;97641.88;4992874;28;20917;-84
2022/05/31 05:56:30;;;;;;;4.10;2.70;;;17.70;53.00;;;15.67;49.38;97637.13;5009115;28;20506;-82
2022/05/31 05:58:57;;;;;;;3.17;2.70;;;17.60;53.00;;;15.19;50.94;97626.84;5012647;28;20470;-85
2022/05/31 06:01:33;;;;;;;3.73;3.10;;;17.20;53.50;;;15.07;51.59;97618.00;4983822;28;20460;-78
2022/05/31 06:04:06;;;;;;;5.70;3.33;;;17.00;53.90;;;14.64;52.38;97615.84;5007606;28;20546;-80
2022/05/31 06:06:36;;;;;;;4.53;3.53;;;16.80;53.90;;;14.77;52.78;97619.28;4991025;28;20551;-78
2022/05/31 06:09:08;;;;;;;3.63;3.07;;;16.70;54.30;;;14.29;53.21;97562.63;5013791;28;20579;-83
2022/05/31 06:11:40;;;;;;;3.43;2.63;;;16.50;54.70;;;14.34;54.45;97603.47;5021677;28;20455;-82
2022/05/31 06:14:12;;;;;;;3.57;3.03;;;16.20;55.50;;;14.77;53.37;97600.25;4982487;28;20531;-78
2022/05/31 06:16:44;;;;;;;3.03;2.83;;;16.60;55.40;;;15.04;53.21;97605.75;5004078;28;21061;-74
2022/05/31 06:19:14;;;;;;;6.00;3.53;;;16.70;55.70;;;16.47;50.05;97600.19;4983318;28;20803;-83
2022/05/31 06:21:43;;;;;;;4.83;3.00;;;17.80;54.90;;;15.17;52.20;97623.56;5013714;28;21246;-82
2022/05/31 06:24:12;;;;;;;5.60;4.10;;;17.30;54.40;;;14.20;55.47;97607.63;4997243;28;20509;-79
2022/05/31 06:26:39;;;;;;;4.20;3.80;;;16.30;55.50;;;13.04;58.88;97604.00;5010497;28;20463;-81
2022/05/31 06:29:06;;;;;;;4.03;3.50;;;15.10;57.80;;;12.62;61.34;97604.25;5013813;28;20843;-79
2022/05/31 06:31:33;;;;;;;3.93;3.50;;;14.20;59.40;;;12.54;61.15;97596.50;5001732;28;20495;-75
2022/05/31 06:34:02;;;;;;;6.93;3.63;;;14.00;60.30;;;12.50;61.88;97615.13;5016579;28;20470;-73
2022/05/31 06:36:29;;;;;;;5.00;3.30;;;13.80;61.40;;;12.91;61.82;97609.72;5007968;28;21159;-80
2022/05/31 06:38:56;;;;;;;3.97;3.57;;;14.00;63.10;;;13.04;60.58;97614.03;5005728;28;20466;-80
2022/05/31 06:41:24;;;;;;;6.40;4.17;;;14.10;62.10;;;13.31;60.39;97616.16;5005084;28;20496;-81
2022/05/31 06:43:51;;;;;;;4.50;3.67;;;14.40;63.10;;;13.87;60.76;97619.06;5006544;28;20462;-79
2022/05/31 06:46:18;;;;;;;4.13;3.73;;;14.70;63.90;;;13.74;59.27;97622.13;4999414;28;20561;-77
2022/05/31 06:48:45;;;;;;;8.03;3.67;;;14.90;61.90;;;13.68;58.72;97615.78;5007012;28;20471;-81
2022/05/31 06:56:48;;;;;;;4.20;3.80;;;14.80;61.30;;;13.64;59.68;97608.38;5013219;28;20455;-79
2022/05/31 06:56:51;;;;;;;15.30;4.50;;;14.60;61.80;;;13.92;58.63;97614.78;5010097;28;20455;-75
2022/05/31 06:59:18;;;;;;;7.70;3.87;;;14.90;62.20;;;13.60;59.66;97619.72;4999986;28;20469;-79
2022/05/31 07:01:47;;;;;;;8.13;3.60;;;14.80;61.90;;;13.85;58.87;97620.41;4986498;28;20985;-81
2022/05/31 07:04:14;;;;;;;4.10;3.70;;;14.90;61.70;;;13.65;59.35;97616.28;5004774;28;21024;-81
2022/05/31 07:06:43;;;;;;;5.50;3.70;;;14.90;61.50;;;14.08;58.99;97619.41;5010316;28;20459;-81
2022/05/31 07:09:12;;;;;;;4.67;3.67;;;15.10;61.80;;;14.51;57.27;97613.50;5006346;28;20461;-76
2022/05/31 07:11:40;;;;;;;4.77;3.90;;;15.40;61.10;;;14.49;57.02;97611.00;4982453;28;20464;-77
2022/05/31 07:14:07;;;;;;;4.57;3.43;;;15.60;61.00;;;14.76;55.90;97614.91;4979696;28;21255;-80
2022/05/31 07:16:34;;;;;;;3.90;3.13;;;15.70;60.60;;;14.98;55.32;97621.19;4987898;28;20558;-80
2022/05/31 07:19:01;;;;;;;3.17;2.60;;;15.90;60.10;;;15.23;54.76;97619.81;5007900;28;20552;-76
2022/05/31 07:21:29;;;;;;;3.10;2.60;;;16.20;59.90;;;15.47;54.20;97616.81;5013646;28;20539;-77
2022/05/31 07:23:57;;;;;;;7.33;6.60;;;16.40;59.40;;;15.52;53.05;97611.41;5005237;28;20444;-76
2022/05/31 07:26:24;;;;;;;7.53;2.60;;;16.60;58.70;;;15.30;53.84;97609.56;5026220;28;20460;-76
2022/05/31 07:28:52;;;;;;;3.60;3.10;;;16.50;58.40;;;15.41;53.25;97612.41;5007756;28;20488;-77
2022/05/31 07:31:19;;;;;;;3.83;3.10;;;16.40;58.10;;;15.60;52.65;97612.84;5009316;28;20547;-74
2022/05/31 07:33:47;;;;;;;3.13;2.83;;;16.60;58.10;;;15.96;51.77;97612.34;4989658;28;20569;-79
2022/05/31 07:36:14;;;;;;;3.10;2.80;;;16.90;57.70;;;15.96;50.62;97607.75;5004990;28;20457;-76
2022/05/31 07:38:42;;;;;;;5.83;3.10;;;17.10;57.00;;;15.82;51.24;97596.41;5002707;28;20441;-80
2022/05/31 07:41:11;;;;;;;2.80;2.60;;;16.90;56.80;;;16.26;50.67;97609.03;5013706;28;20462;-75
2022/05/31 07:43:38;;;;;;;4.70;3.03;;;17.20;57.00;;;16.42;50.78;97614.59;4986908;28;20528;-71
2022/05/31 07:46:10;;;;;;;2.97;2.67;;;17.40;57.20;;;16.70;49.89;97613.38;4995413;28;20498;-72
2022/05/31 07:48:38;;;;;;;4.40;2.80;;;17.60;56.60;;;16.62;49.93;97605.72;4985980;28;20477;-72
2022/05/31 07:51:07;;;;;;;4.50;2.87;;;17.60;56.30;;;16.75;49.62;97600.84;5005282;28;20713;-72
2022/05/31 07:53:34;;;;;;;5.30;3.10;;;17.60;56.30;;;17.01;49.30;97610.00;5007633;28;20553;-71
2022/05/31 07:56:06;;;;;;;3.63;3.33;;;17.90;56.10;;;17.23;49.13;97604.34;5005104;28;20549;-72
2022/05/31 07:58:36;;;;;;;4.47;3.70;;;18.00;56.10;;;17.58;47.48;97606.56;5006381;28;20454;-73
2022/05/31 08:01:15;;;;;;;5.80;3.10;;;18.40;55.50;;;16.83;48.72;97609.34;5006299;28;20562;-70
2022/05/31 08:03:43;;;;;;;3.93;3.50;;;18.00;54.90;;;17.14;48.77;97614.13;5003578;28;20460;-72
2022/05/31 08:06:13;;;;;;;4.23;3.33;;;18.00;55.40;;;17.23;47.24;97611.69;5003211;28;20537;-72
2022/05/31 08:08:41;;;;;;;4.17;3.60;;;18.10;54.20;;;17.01;47.00;97606.44;4986967;28;20469;-72
2022/05/31 08:11:12;;;;;;;3.20;2.90;;;18.10;53.60;;;17.18;47.43;97609.75;5006426;28;20465;-71
2022/05/31 08:13:41;;;;;;;3.60;2.73;;;18.00;54.10;;;17.25;46.12;97599.41;4979700;28;20547;-71
2022/05/31 08:16:11;;;;;;;3.17;2.83;;;18.10;53.10;;;17.33;47.07;97592.59;5005036;28;20469;-71
2022/05/31 08:18:39;;;;;;;3.67;3.23;;;18.20;53.70;;;17.36;47.22;97605.72;5011446;28;20462;-71
2022/05/31 08:21:09;;;;;;;3.33;2.97;;;18.30;53.70;;;17.38;46.42;97600.00;5011879;28;20465;-69
2022/05/31 08:23:37;;;;;;;3.63;2.70;;;18.30;53.30;;;17.68;46.35;97595.66;5009842;28;21202;-74
2022/05/31 08:26:06;;;;;;;2.83;2.50;;;18.40;53.40;;;18.02;45.14;97589.66;4986693;28;20709;-72
2022/05/31 08:28:33;;;;;;;2.63;2.20;;;18.80;53.10;;;17.53;45.36;97589.09;5010479;28;20461;-73
2022/05/31 08:31:05;;;;;;;2.63;2.27;;;18.50;52.40;;;18.03;44.79;97594.03;4993212;28;20542;-71
2022/05/31 08:33:33;;;;;;;2.33;2.13;;;18.80;52.50;;;17.69;44.42;97591.84;4992539;28;20852;-70
2022/05/31 08:36:01;;;;;;;1.93;1.70;;;18.60;51.20;;;17.99;43.62;97579.25;5007555;28;20473;-71
2022/05/31 08:38:28;;;;;;;5.07;2.30;;;18.80;51.30;;;18.22;42.70;97577.06;5010816;28;20496;-71
2022/05/31 08:41:08;;;;;;;2.50;2.30;;;19.00;51.10;;;18.27;41.80;97574.31;5011769;28;20470;-73
2022/05/31 08:43:54;;;;;;;3.70;2.00;;;19.20;50.00;;;18.53;41.03;97571.53;5008603;28;20482;-74
2022/05/31 08:46:40;;;;;;;2.00;1.43;;;19.30;49.10;;;18.46;41.86;97557.34;4991458;28;20945;-71
2022/05/31 08:51:52;;;;;;;2.80;1.90;;;19.40;49.80;;;18.59;42.21;97554.00;5006802;28;20562;-74
2022/05/31 08:52:26;;;;;;;3.57;1.90;;;19.40;50.00;;;18.73;41.48;97554.22;5006813;28;21269;-70
2022/05/31 08:57:49;;;;;;;2.00;1.80;;;19.30;48.10;;;18.51;38.85;97551.84;5003384;28;20456;-70
2022/05/31 09:00:21;;;;;;;4.83;1.77;;;19.40;47.60;;;18.33;38.58;97545.88;5005452;28;20559;-75
2022/05/31 09:02:56;;;;;;;1.63;1.53;;;19.30;46.50;;;18.44;37.72;97554.06;5010552;28;20459;-74
2022/05/31 09:05:30;;;;;;;2.50;1.70;;;19.30;45.80;;;18.35;39.89;97551.88;5012121;28;20493;-70
2022/05/31 09:08:03;;;;;;;3.00;1.90;;;19.20;47.60;;;18.41;40.15;97552.69;5016479;28;20461;-75
2022/05/31 09:10:38;;;;;;;3.97;2.00;;;19.30;47.80;;;18.61;40.39;97551.81;5012969;28;20552;-72
2022/05/31 09:13:13;;;;;;;2.20;2.00;;;19.40;48.00;;;19.10;40.10;97547.47;4994083;28;20559;-75
2022/05/31 09:15:44;;;;;;;6.03;1.80;;;19.70;48.50;;;19.25;39.38;97553.97;4997938;28;20479;-73
2022/05/31 09:18:18;;;;;;;3.67;1.80;;;19.90;48.10;;;19.27;36.80;97543.56;5014878;28;20551;-72
2022/05/31 09:20:53;;;;;;;5.07;1.90;;;20.20;46.30;;;19.35;37.90;97544.88;5013385;28;20528;-70
2022/05/31 09:23:24;;;;;;;5.17;1.83;;;20.20;46.80;;;19.27;37.66;97546.31;5014629;28;20468;-69
2022/05/31 09:26:00;;;;;;;3.27;1.70;;;20.20;46.30;;;19.24;38.55;97536.72;5003676;28;20499;-72
2022/05/31 09:28:37;;;;;;;1.70;1.60;;;20.10;46.90;;;19.42;38.11;97537.16;4993039;28;20453;-73
2022/05/31 09:31:18;;;;;;;2.60;1.70;;;20.20;46.80;;;19.64;36.65;97533.97;5003527;28;20963;-69
2022/05/31 09:33:57;;;;;;;4.73;1.73;;;20.50;46.30;;;19.89;35.30;97536.75;4981166;28;20462;-75
2022/05/31 09:36:32;;;;;;;1.40;1.30;;;20.70;44.80;;;20.18;34.21;97535.97;4996035;28;20465;-80
2022/05/31 09:39:23;;;;;;;1.67;1.40;;;20.90;44.20;;;19.18;34.91;97529.63;5010861;28;20456;-73
2022/05/31 09:42:00;;;;;;;2.67;1.50;;;20.40;43.30;;;19.47;33.97;97534.38;5008457;28;20459;-78
2022/05/31 09:44:34;;;;;;;3.40;2.00;;;20.30;43.40;;;19.61;33.95;97533.72;4993115;28;20947;-79
2022/05/31 09:47:10;;;;;;;3.53;1.73;;;20.40;43.10;;;19.41;33.84;97538.25;4997110;28;21278;-80
2022/05/31 09:49:44;;;;;;;2.27;1.57;;;20.30;42.70;;;19.42;34.21;97539.88;5013863;28;20931;-82
2022/05/31 09:52:17;;;;;;;2.70;1.67;;;20.20;43.00;;;19.30;35.65;97523.81;4989293;28;20492;-79
2022/05/31 09:57:58;;;;;;;5.50;2.20;;;20.40;43.20;;;19.60;34.02;97523.84;5003571;28;20446;-83
2022/05/31 10:00:26;;;;;;;2.20;1.67;;;20.50;43.00;;;19.56;34.42;97520.06;4994349;28;20477;-76
2022/05/31 10:03:13;;;;;;;1.43;1.20;;;20.40;43.20;;;19.42;34.67;97509.75;5009035;28;20511;-76
2022/05/31 10:05:45;;;;;;;2.20;1.67;;;20.30;43.00;;;19.24;34.86;97514.00;5002488;28;20461;-76
2022/05/31 10:08:18;;;;;;;2.90;1.50;;;20.30;43.20;;;19.37;35.42;97510.59;5022531;28;20552;-72
2022/05/31 10:10:49;;;;;;;2.33;1.20;;;20.20;43.70;;;19.73;35.62;97506.75;5026273;28;20564;-73
2022/05/31 10:13:36;;;;;;;3.83;1.80;;;20.40;44.00;;;20.05;34.16;97499.91;5031690;28;20484;-76
2022/05/31 10:16:16;;;;;;;1.43;1.33;;;20.80;43.50;;;20.12;33.79;97504.25;5009961;28;20512;-73
2022/05/31 10:18:56;;;;;;;1.80;1.70;;;20.90;42.70;;;19.99;32.76;97506.56;5030714;28;20452;-74
2022/05/31 10:21:36;;;;;;;2.17;1.40;;;20.90;42.00;;;20.11;32.80;97506.16;5004321;28;20447;-72
2022/05/31 10:24:10;;;;;;;2.60;1.50;;;20.90;42.10;;;20.14;33.27;97502.00;5020638;28;20539;-75
2022/05/31 10:26:41;;;;;;;1.27;1.17;;;20.90;42.30;;;20.01;32.35;97492.53;5023330;28;20478;-76
2022/05/31 10:29:16;;;;;;;1.57;1.40;;;20.90;41.60;;;19.97;32.80;97495.06;5020258;28;20953;-80
2022/05/31 10:31:46;;;;;;;2.93;1.47;;;20.80;41.60;;;20.04;32.32;97487.28;5015985;28;20600;-74
2022/05/31 10:34:41;;;;;;;1.60;1.50;;;20.90;41.60;;;20.58;32.47;97495.47;5023266;28;20503;-80
2022/05/31 10:37:24;;;;;;;3.00;1.60;;;21.20;42.60;;;20.75;31.08;97488.66;4950574;28;20980;-83
2022/05/31 10:40:04;;;;;;;2.40;1.87;;;21.50;41.40;;;20.71;31.55;97487.63;5013557;28;20458;-83
2022/05/31 10:42:34;;;;;;;5.53;2.13;;;21.50;41.40;;;20.77;31.38;97481.75;5008534;28;20490;-80
2022/05/31 10:45:07;;;;;;;3.20;1.70;;;21.60;41.00;;;20.86;31.28;97484.69;5006961;28;20455;-84
2022/05/31 10:47:34;;;;;;;2.93;1.50;;;21.70;41.20;;;21.09;31.58;97471.19;5001724;28;21417;-84
2022/05/31 10:50:07;;;;;;;4.30;1.60;;;21.80;41.50;;;21.03;30.43;97475.13;5007223;28;20471;-82
2022/05/31 10:52:42;;;;;;;2.43;1.57;;;21.80;40.50;;;20.80;30.63;97419.97;5005385;28;21270;-82
2022/05/31 10:55:33;;;;;;;3.40;1.80;;;21.90;40.40;;;20.85;30.79;97461.13;5004259;28;20544;-78